Time;durP1;ratioP1;P1;durP2;ratioP2;P2;SDS_P1;SDS_P2;PMS_P1;PMS_P2;Temp;Humidity;BMP_temperature;BMP_pressure;BME280_temperature;BME280_humidity;BME280_pressure;Samples;Min_cycle;Max_cycle;Signal;HPM_P1;HPM_P2
2024/01/27 00:00:23;;;;;;;4.95;2.33;;;7.20;70.40;;;;;;2265001;55;20974;-67
2024/01/27 00:02:49;;;;;;;6.45;3.10;;;7.20;70.50;;;;;;2486538;54;21048;-67
2024/01/27 00:05:15;;;;;;;12.80;5.90;;;7.10;70.50;;;;;;2486384;54;20985;-67
2024/01/27 00:07:47;;;;;;;12.98;5.95;;;7.10;70.60;;;;;;2264620;55;20998;-67
2024/01/27 00:10:16;;;;;;;8.32;4.20;;;7.00;70.40;;;;;;2265177;55;21014;-68
2024/01/27 00:12:42;;;;;;;7.97;3.58;;;7.00;70.40;;;;;;2265237;55;21015;-66
2024/01/27 00:15:12;;;;;;;5.30;3.00;;;7.00;70.40;;;;;;2493870;54;21221;-67
2024/01/27 00:17:39;;;;;;;5.72;2.37;;;6.90;70.40;;;;;;2265139;55;21032;-66
2024/01/27 00:20:06;;;;;;;6.37;2.62;;;6.90;70.60;;;;;;2264097;55;21182;-68
2024/01/27 00:22:33;;;;;;;3.58;1.67;;;6.80;70.60;;;;;;2265542;55;21282;-68
2024/01/27 00:24:59;;;;;;;8.98;2.20;;;6.80;71.40;;;;;;2264623;55;20930;-66
2024/01/27 00:27:27;;;;;;;4.37;1.62;;;6.80;70.80;;;;;;2265168;55;21070;-68
2024/01/27 00:29:53;;;;;;;6.70;2.00;;;6.70;70.70;;;;;;2265004;55;21046;-67
2024/01/27 00:32:20;;;;;;;3.85;1.58;;;6.70;70.70;;;;;;2264802;55;20950;-66
2024/01/27 00:34:46;;;;;;;3.85;1.48;;;6.70;70.70;;;;;;2265464;55;21034;-67
2024/01/27 00:37:13;;;;;;;3.72;1.60;;;6.60;70.50;;;;;;2265369;55;20950;-68
2024/01/27 00:39:40;;;;;;;3.22;1.35;;;6.60;70.60;;;;;;2267780;55;21054;-67
2024/01/27 00:42:06;;;;;;;3.45;1.73;;;6.50;70.60;;;;;;2264709;55;21484;-66
2024/01/27 00:44:33;;;;;;;3.33;1.33;;;6.50;70.70;;;;;;2264534;55;21408;-67
2024/01/27 00:46:59;;;;;;;3.47;1.45;;;6.40;70.60;;;;;;2264607;55;20978;-66
2024/01/27 00:49:25;;;;;;;4.62;1.40;;;6.40;70.70;;;;;;2264130;55;21045;-65
2024/01/27 00:51:52;;;;;;;3.28;1.30;;;6.40;70.80;;;;;;2264952;55;21825;-67
2024/01/27 00:54:18;;;;;;;4.07;1.27;;;6.40;70.80;;;;;;2265929;55;20978;-66
2024/01/27 00:56:45;;;;;;;3.53;1.27;;;6.30;70.80;;;;;;2256002;56;20992;-66
2024/01/27 00:59:11;;;;;;;4.47;1.30;;;6.30;70.70;;;;;;2493258;54;21250;-67
2024/01/27 01:01:38;;;;;;;3.37;1.30;;;6.30;70.70;;;;;;2488102;54;20960;-67
2024/01/27 01:04:04;;;;;;;5.78;1.73;;;6.30;70.70;;;;;;2257873;55;21365;-67
2024/01/27 01:06:32;;;;;;;3.62;1.20;;;6.20;70.70;;;;;;2263785;55;20971;-67
2024/01/27 01:08:58;;;;;;;3.30;1.12;;;6.20;70.70;;;;;;2261737;55;21009;-67
2024/01/27 01:11:24;;;;;;;1.90;0.90;;;6.10;70.70;;;;;;2493840;54;20967;-67
2024/01/27 01:13:51;;;;;;;2.92;1.35;;;6.10;70.80;;;;;;2264009;55;21758;-68
2024/01/27 01:16:17;;;;;;;3.42;1.25;;;6.10;70.70;;;;;;2265048;55;20955;-67
2024/01/27 01:18:44;;;;;;;3.08;1.10;;;6.10;70.70;;;;;;2262611;55;20953;-67
2024/01/27 01:21:10;;;;;;;4.70;1.40;;;6.00;70.60;;;;;;2258377;55;21761;-66
2024/01/27 01:23:37;;;;;;;3.85;1.20;;;6.00;70.70;;;;;;2263773;55;21843;-67
2024/01/27 01:26:04;;;;;;;4.40;1.30;;;6.00;70.70;;;;;;2253146;56;20964;-67
2024/01/27 01:28:32;;;;;;;3.40;1.30;;;5.90;70.60;;;;;;2492438;54;20998;-67
2024/01/27 01:30:59;;;;;;;5.15;1.08;;;5.90;70.60;;;;;;2492725;54;20946;-67
2024/01/27 01:33:28;;;;;;;2.28;0.98;;;5.90;70.60;;;;;;2261905;55;21012;-67
2024/01/27 01:35:57;;;;;;;3.62;1.45;;;5.80;70.50;;;;;;2484362;54;20930;-67
2024/01/27 01:38:23;;;;;;;2.25;0.85;;;5.80;70.40;;;;;;2264690;55;20986;-67
2024/01/27 01:40:50;;;;;;;2.78;1.10;;;5.80;70.40;;;;;;2264084;55;21476;-67
2024/01/27 01:43:17;;;;;;;6.32;1.40;;;5.70;70.40;;;;;;2263430;55;21030;-66
2024/01/27 01:45:43;;;;;;;2.80;1.00;;;5.70;70.50;;;;;;2494213;54;21042;-67
2024/01/27 01:48:09;;;;;;;4.90;1.10;;;5.70;70.50;;;;;;2264244;55;20963;-67
2024/01/27 01:50:36;;;;;;;3.78;1.48;;;5.60;70.50;;;;;;2264521;55;21250;-67
2024/01/27 01:53:02;;;;;;;4.12;1.35;;;5.60;70.50;;;;;;2480566;53;20940;-67
2024/01/27 01:55:29;;;;;;;2.53;1.12;;;5.60;70.50;;;;;;2494220;54;20970;-67
2024/01/27 01:57:56;;;;;;;2.95;1.20;;;5.60;70.40;;;;;;2493768;54;20994;-66
2024/01/27 02:00:22;;;;;;;3.40;1.40;;;5.50;70.30;;;;;;2494203;54;21864;-67
2024/01/27 02:02:48;;;;;;;4.68;1.25;;;5.50;70.40;;;;;;2264140;55;21022;-67
2024/01/27 02:05:15;;;;;;;4.80;1.75;;;5.50;70.40;;;;;;2264436;55;21479;-67
2024/01/27 02:07:41;;;;;;;10.43;4.72;;;5.40;70.40;;;;;;2264111;55;21002;-67
2024/01/27 02:10:13;;;;;;;9.77;4.05;;;5.40;70.40;;;;;;2264872;55;21754;-67
2024/01/27 02:12:39;;;;;;;17.53;6.77;;;5.40;70.50;;;;;;2264365;55;22059;-67
2024/01/27 02:15:15;;;;;;;10.70;4.35;;;5.40;70.50;;;;;;2493277;54;21766;-67
2024/01/27 02:17:41;;;;;;;9.48;3.83;;;5.30;71.10;;;;;;2264718;55;20954;-66
2024/01/27 02:20:08;;;;;;;5.45;2.37;;;5.30;70.30;;;;;;2266136;55;21026;-67
2024/01/27 02:22:35;;;;;;;6.90;2.40;;;5.20;70.30;;;;;;2254993;55;21003;-68
2024/01/27 02:25:02;;;;;;;6.03;2.12;;;5.20;70.40;;;;;;2264102;55;20970;-67
2024/01/27 02:27:28;;;;;;;6.15;1.98;;;5.20;70.50;;;;;;2494493;54;21884;-67
2024/01/27 02:29:57;;;;;;;8.35;2.15;;;5.20;70.60;;;;;;2264161;55;21183;-66
2024/01/27 02:32:24;;;;;;;3.92;1.40;;;5.20;70.70;;;;;;2264667;55;21015;-67
2024/01/27 02:34:50;;;;;;;3.30;1.20;;;5.10;70.70;;;;;;2493928;54;20919;-66
2024/01/27 02:37:17;;;;;;;3.40;1.48;;;5.20;70.80;;;;;;2265053;55;21466;-66
2024/01/27 02:39:44;;;;;;;3.70;1.23;;;5.10;70.70;;;;;;2264717;55;21565;-67
2024/01/27 02:42:10;;;;;;;2.62;1.10;;;5.10;70.70;;;;;;2493653;54;20951;-67
2024/01/27 02:44:36;;;;;;;4.37;1.50;;;5.10;70.70;;;;;;2264318;55;20971;-66
2024/01/27 02:47:03;;;;;;;3.87;1.40;;;5.00;70.60;;;;;;2265113;55;21214;-67
2024/01/27 02:49:29;;;;;;;4.55;1.50;;;5.00;70.70;;;;;;2264252;55;21022;-67
2024/01/27 02:51:56;;;;;;;4.50;1.90;;;5.00;70.70;;;;;;2494245;54;20950;-67
2024/01/27 02:54:22;;;;;;;4.78;1.48;;;5.00;70.70;;;;;;2264821;55;21726;-67
2024/01/27 02:56:48;;;;;;;3.05;1.00;;;4.90;70.50;;;;;;2455958;55;21022;-68
2024/01/27 02:59:15;;;;;;;2.85;1.33;;;4.90;70.40;;;;;;2264595;55;20946;-67
2024/01/27 03:01:41;;;;;;;3.53;1.50;;;4.90;70.50;;;;;;2494338;54;20963;-67
2024/01/27 03:04:08;;;;;;;4.20;1.55;;;4.90;70.60;;;;;;2263815;55;20967;-67
2024/01/27 03:06:35;;;;;;;2.92;1.20;;;4.90;70.60;;;;;;2264426;55;21214;-66
2024/01/27 03:09:01;;;;;;;3.42;1.30;;;4.90;70.60;;;;;;2264160;55;20950;-67
2024/01/27 03:11:29;;;;;;;2.35;1.00;;;4.90;70.60;;;;;;2264401;55;20951;-66
2024/01/27 03:13:58;;;;;;;2.83;1.20;;;4.80;70.50;;;;;;2264474;55;20959;-68
2024/01/27 03:16:25;;;;;;;3.03;1.40;;;4.80;70.50;;;;;;2494263;54;21306;-67
2024/01/27 03:18:51;;;;;;;3.58;1.00;;;4.80;70.50;;;;;;2264780;55;20959;-66
2024/01/27 03:21:20;;;;;;;2.97;1.10;;;4.80;70.60;;;;;;2256376;56;20978;-66
2024/01/27 03:23:47;;;;;;;2.28;1.10;;;4.70;70.60;;;;;;2494418;54;20958;-67
2024/01/27 03:26:13;;;;;;;3.60;1.20;;;4.70;70.70;;;;;;2264646;55;21907;-67
2024/01/27 03:28:40;;;;;;;3.90;2.15;;;4.70;70.80;;;;;;2487333;54;20969;-67
2024/01/27 03:31:06;;;;;;;3.67;2.15;;;4.70;70.80;;;;;;2259167;55;21357;-67
2024/01/27 03:33:32;;;;;;;3.05;1.50;;;4.70;70.90;;;;;;2264502;55;20950;-67
2024/01/27 03:35:59;;;;;;;2.75;1.23;;;4.70;70.90;;;;;;2265605;55;20934;-66
2024/01/27 03:38:25;;;;;;;3.12;1.40;;;4.70;70.90;;;;;;2264948;55;20978;-67
2024/01/27 03:40:52;;;;;;;2.60;1.02;;;4.60;70.80;;;;;;2264673;55;21007;-67
2024/01/27 03:43:20;;;;;;;2.53;1.20;;;4.60;71.00;;;;;;2494089;54;20947;-66
2024/01/27 03:45:46;;;;;;;3.00;1.20;;;4.60;70.80;;;;;;2494128;54;21781;-68
2024/01/27 03:48:13;;;;;;;2.67;1.20;;;4.60;70.80;;;;;;2264886;55;20962;-67
2024/01/27 03:50:39;;;;;;;3.03;1.20;;;4.60;70.80;;;;;;2264691;55;21049;-66
2024/01/27 03:53:05;;;;;;;2.33;0.85;;;4.50;70.70;;;;;;2493256;54;21504;-67
2024/01/27 03:55:32;;;;;;;2.72;0.95;;;4.50;70.70;;;;;;2493247;54;20984;-67
2024/01/27 03:57:58;;;;;;;3.12;1.05;;;4.50;70.70;;;;;;2494236;54;21026;-68
2024/01/27 04:00:25;;;;;;;2.95;1.00;;;4.50;70.60;;;;;;2493992;54;20946;-68
2024/01/27 04:02:51;;;;;;;2.60;1.15;;;4.50;70.60;;;;;;2482386;55;21007;-66
2024/01/27 04:05:18;;;;;;;2.40;0.80;;;4.50;70.50;;;;;;2481431;54;21004;-67
2024/01/27 04:07:45;;;;;;;4.30;1.10;;;4.40;70.40;;;;;;2263642;55;20978;-66
2024/01/27 04:10:11;;;;;;;2.17;0.93;;;4.40;70.20;;;;;;2493534;54;20971;-66
2024/01/27 04:12:38;;;;;;;3.00;1.10;;;4.40;70.20;;;;;;2265232;55;20947;-67
2024/01/27 04:15:06;;;;;;;2.30;0.85;;;4.40;70.20;;;;;;2483524;54;21675;-66
2024/01/27 04:17:32;;;;;;;3.62;1.10;;;4.30;70.10;;;;;;2262456;55;21496;-68
2024/01/27 04:19:58;;;;;;;3.17;1.02;;;4.30;70.10;;;;;;2265154;55;20962;-68
2024/01/27 04:22:25;;;;;;;2.45;0.90;;;4.30;70.10;;;;;;2492429;54;20927;-66
2024/01/27 04:24:51;;;;;;;3.00;0.90;;;4.20;70.10;;;;;;2265017;55;20966;-67
2024/01/27 04:27:18;;;;;;;3.30;1.10;;;4.20;70.10;;;;;;2264530;55;20984;-66
2024/01/27 04:29:45;;;;;;;2.55;1.00;;;4.20;70.20;;;;;;2493760;54;21038;-67
2024/01/27 04:32:12;;;;;;;2.78;1.02;;;4.20;70.30;;;;;;2264259;55;20967;-67
2024/01/27 04:34:39;;;;;;;2.28;0.90;;;4.20;70.30;;;;;;2258464;56;20965;-67
2024/01/27 04:37:05;;;;;;;2.87;1.17;;;4.10;70.20;;;;;;2264710;55;20997;-66
2024/01/27 04:39:32;;;;;;;2.75;1.10;;;4.10;70.20;;;;;;2264579;55;21003;-66
2024/01/27 04:41:58;;;;;;;4.05;1.27;;;4.10;70.30;;;;;;2264812;55;21016;-66
2024/01/27 04:44:27;;;;;;;2.58;0.90;;;4.10;70.30;;;;;;2264474;55;21062;-67
2024/01/27 04:46:53;;;;;;;3.20;1.37;;;4.10;70.30;;;;;;2264399;55;20963;-66
2024/01/27 04:49:19;;;;;;;3.90;1.00;;;4.10;70.30;;;;;;2264158;55;20959;-67
2024/01/27 04:51:49;;;;;;;2.75;1.10;;;4.00;70.20;;;;;;2265093;55;20974;-67
2024/01/27 04:54:15;;;;;;;2.80;1.02;;;4.00;70.20;;;;;;2256622;55;21843;-67
2024/01/27 04:56:42;;;;;;;3.10;1.02;;;4.00;70.20;;;;;;2264925;55;21040;-66
2024/01/27 04:59:08;;;;;;;3.58;0.98;;;4.00;70.10;;;;;;2264379;55;21405;-66
2024/01/27 05:01:36;;;;;;;3.50;1.10;;;3.90;70.00;;;;;;2262986;55;20974;-67
2024/01/27 05:04:05;;;;;;;3.17;1.00;;;4.00;70.10;;;;;;2493397;54;20967;-66
2024/01/27 05:06:31;;;;;;;3.62;1.10;;;3.90;70.10;;;;;;2493609;54;20927;-66
2024/01/27 05:08:57;;;;;;;5.22;1.20;;;3.90;70.00;;;;;;2264620;55;21789;-66
2024/01/27 05:11:33;;;;;;;2.22;0.90;;;3.80;70.00;;;;;;2255443;56;21473;-67
2024/01/27 05:14:02;;;;;;;6.12;1.45;;;3.80;70.00;;;;;;2257648;55;21491;-67
2024/01/27 05:16:29;;;;;;;3.75;1.20;;;3.80;70.00;;;;;;2492896;54;20998;-66
2024/01/27 05:18:55;;;;;;;3.42;1.27;;;3.80;70.10;;;;;;2493806;54;21046;-67
2024/01/27 05:21:22;;;;;;;6.12;1.50;;;3.80;70.10;;;;;;2264427;55;21419;-67
2024/01/27 05:23:48;;;;;;;7.10;1.30;;;3.70;70.10;;;;;;2489456;54;21982;-66
2024/01/27 05:26:16;;;;;;;3.03;1.10;;;3.70;70.10;;;;;;2257623;55;21036;-66
2024/01/27 05:28:42;;;;;;;5.45;1.70;;;3.70;70.30;;;;;;2264432;55;20966;-67
2024/01/27 05:31:08;;;;;;;4.10;1.40;;;3.70;70.50;;;;;;2264515;55;20958;-66
2024/01/27 05:33:39;;;;;;;2.92;1.23;;;3.70;70.80;;;;;;2265043;55;20990;-67
2024/01/27 05:36:06;;;;;;;4.45;1.48;;;3.70;71.00;;;;;;2264549;55;21315;-67
2024/01/27 05:38:32;;;;;;;4.70;1.40;;;3.70;71.30;;;;;;2264202;55;21066;-67
2024/01/27 05:41:01;;;;;;;5.10;1.37;;;3.70;71.50;;;;;;2493220;54;20971;-67
2024/01/27 05:43:30;;;;;;;4.00;1.27;;;3.80;71.60;;;;;;2492176;54;21009;-67
2024/01/27 05:46:00;;;;;;;5.37;1.77;;;3.80;71.60;;;;;;2267333;55;20958;-67
2024/01/27 05:48:26;;;;;;;5.05;1.30;;;3.80;71.60;;;;;;2254146;55;20999;-66
2024/01/27 05:50:56;;;;;;;2.83;1.20;;;3.80;71.60;;;;;;2257812;56;20980;-66
2024/01/27 05:53:22;;;;;;;5.55;1.33;;;3.80;71.60;;;;;;2264658;55;20951;-66
2024/01/27 05:55:49;;;;;;;3.35;1.30;;;3.80;71.50;;;;;;2494125;54;20954;-67
2024/01/27 05:58:16;;;;;;;4.10;1.70;;;3.80;71.40;;;;;;2264943;55;20943;-66
2024/01/27 06:00:46;;;;;;;4.93;1.70;;;3.80;71.30;;;;;;2264737;55;20958;-67
2024/01/27 06:03:12;;;;;;;3.30;1.42;;;3.80;71.20;;;;;;2236960;57;20974;-66
2024/01/27 06:05:39;;;;;;;4.97;1.95;;;3.80;71.20;;;;;;2264766;55;20950;-67
2024/01/27 06:08:07;;;;;;;4.72;1.77;;;3.80;71.10;;;;;;2493171;54;20954;-66
2024/01/27 06:10:33;;;;;;;5.68;2.15;;;3.80;71.10;;;;;;2493950;54;20966;-67
2024/01/27 06:12:59;;;;;;;5.72;2.22;;;3.80;71.10;;;;;;2264744;55;21077;-66
2024/01/27 06:15:25;;;;;;;5.60;2.87;;;3.80;71.00;;;;;;2263905;55;21101;-67
2024/01/27 06:18:01;;;;;;;7.20;3.17;;;3.80;70.90;;;;;;2264739;55;20978;-66
2024/01/27 06:20:27;;;;;;;6.07;2.80;;;3.80;70.80;;;;;;2264178;55;21016;-66
2024/01/27 06:22:55;;;;;;;6.53;2.42;;;3.80;70.90;;;;;;2258934;55;20968;-66
2024/01/27 06:25:21;;;;;;;4.55;2.03;;;3.80;70.90;;;;;;2491311;54;21555;-66
2024/01/27 06:27:48;;;;;;;3.90;1.80;;;3.80;70.90;;;;;;2264655;55;21010;-67
2024/01/27 06:30:15;;;;;;;4.05;1.87;;;3.80;70.90;;;;;;2264968;55;21472;-66
2024/01/27 06:32:42;;;;;;;6.35;1.75;;;3.80;70.90;;;;;;2264642;55;21725;-65
2024/01/27 06:35:11;;;;;;;3.08;1.30;;;3.80;70.80;;;;;;2264685;55;20939;-66
2024/01/27 06:37:37;;;;;;;3.80;1.50;;;3.80;70.80;;;;;;2263642;55;20930;-66
2024/01/27 06:40:05;;;;;;;2.42;1.08;;;3.80;70.80;;;;;;2265168;55;20930;-65
2024/01/27 06:42:32;;;;;;;5.78;1.30;;;3.80;70.80;;;;;;2264555;55;21496;-66
2024/01/27 06:44:59;;;;;;;3.72;1.65;;;3.80;70.80;;;;;;2264734;55;21948;-66
2024/01/27 06:47:26;;;;;;;5.00;1.30;;;3.80;70.80;;;;;;2264447;55;21804;-66
2024/01/27 06:49:52;;;;;;;3.62;1.48;;;3.70;70.70;;;;;;2263929;55;20958;-66
2024/01/27 06:52:19;;;;;;;5.10;1.10;;;3.80;70.80;;;;;;2264968;55;21406;-66
2024/01/27 06:54:45;;;;;;;4.68;1.27;;;3.70;70.60;;;;;;2264541;55;21405;-66
2024/01/27 06:57:21;;;;;;;3.67;1.23;;;3.70;70.60;;;;;;2493303;54;20942;-66
2024/01/27 06:59:55;;;;;;;4.32;1.30;;;3.70;70.50;;;;;;2264184;55;21105;-66
2024/01/27 07:02:30;;;;;;;4.05;1.05;;;3.70;70.50;;;;;;2264674;55;20952;-65
2024/01/27 07:04:56;;;;;;;3.20;1.08;;;3.70;70.60;;;;;;2264624;55;21484;-67
2024/01/27 07:07:26;;;;;;;5.00;1.30;;;3.70;70.50;;;;;;2264996;55;21082;-66
2024/01/27 07:09:56;;;;;;;5.30;1.50;;;3.70;70.60;;;;;;2264243;55;20963;-67
2024/01/27 07:12:22;;;;;;;4.12;1.55;;;3.70;70.60;;;;;;2264513;55;20999;-66
2024/01/27 07:14:51;;;;;;;9.38;1.67;;;3.60;70.50;;;;;;2263176;55;21042;-66
2024/01/27 07:17:17;;;;;;;3.25;1.50;;;3.60;70.50;;;;;;2264481;55;20967;-66
2024/01/27 07:19:44;;;;;;;4.53;1.85;;;3.60;70.50;;;;;;2492821;54;20958;-67
2024/01/27 07:22:10;;;;;;;4.82;1.77;;;3.60;70.60;;;;;;2493292;54;21098;-67
2024/01/27 07:24:40;;;;;;;5.97;2.10;;;3.60;70.60;;;;;;2492403;54;20986;-67
2024/01/27 07:27:11;;;;;;;4.80;1.77;;;3.60;70.60;;;;;;2263532;55;20997;-66
2024/01/27 07:29:38;;;;;;;7.10;2.78;;;3.60;70.70;;;;;;2263866;55;21061;-66
2024/01/27 07:32:08;;;;;;;5.35;2.50;;;3.60;70.70;;;;;;2265175;55;21279;-66
2024/01/27 07:34:36;;;;;;;4.53;2.37;;;3.60;70.70;;;;;;2263916;55;21126;-66
2024/01/27 07:37:02;;;;;;;5.85;2.50;;;3.60;70.70;;;;;;2494477;54;20974;-66
2024/01/27 07:39:29;;;;;;;5.90;2.67;;;3.60;70.70;;;;;;2264117;55;21014;-66
2024/01/27 07:41:55;;;;;;;5.47;3.00;;;3.60;70.70;;;;;;2264154;55;20958;-66
2024/01/27 07:44:22;;;;;;;6.30;3.05;;;3.60;70.80;;;;;;2494112;54;20942;-66
2024/01/27 07:46:49;;;;;;;4.10;2.50;;;3.60;70.80;;;;;;2492993;54;21252;-67
2024/01/27 07:49:18;;;;;;;5.12;2.92;;;3.50;70.80;;;;;;2265391;55;21034;-65
2024/01/27 07:51:45;;;;;;;5.87;3.00;;;3.50;70.80;;;;;;2260481;55;21769;-67
2024/01/27 07:54:11;;;;;;;6.22;2.70;;;3.50;70.90;;;;;;2488923;54;20978;-66
2024/01/27 07:56:38;;;;;;;7.35;2.75;;;3.50;70.90;;;;;;2264308;55;20954;-66
2024/01/27 07:59:04;;;;;;;4.87;2.75;;;3.60;71.00;;;;;;2264844;55;20954;-66
2024/01/27 08:01:31;;;;;;;6.68;3.20;;;3.50;70.90;;;;;;2264278;55;20946;-66
2024/01/27 08:03:57;;;;;;;8.60;3.12;;;3.50;70.90;;;;;;2494161;54;21002;-66
2024/01/27 08:06:30;;;;;;;8.90;3.47;;;3.60;71.00;;;;;;2264451;55;21059;-66
2024/01/27 08:08:57;;;;;;;6.28;3.12;;;3.60;70.90;;;;;;2267125;55;21034;-66
2024/01/27 08:11:24;;;;;;;6.68;3.35;;;3.60;71.00;;;;;;2494761;54;21448;-66
2024/01/27 08:13:51;;;;;;;6.75;3.28;;;3.60;71.00;;;;;;2264350;55;20963;-67
2024/01/27 08:16:18;;;;;;;7.90;3.60;;;3.60;71.00;;;;;;2263893;55;20984;-66
2024/01/27 08:18:45;;;;;;;9.50;4.53;;;3.60;71.00;;;;;;2258016;56;21064;-66
2024/01/27 08:21:14;;;;;;;10.05;4.32;;;3.60;71.00;;;;;;2258151;55;21622;-66
2024/01/27 08:23:41;;;;;;;7.50;3.80;;;3.60;71.10;;;;;;2493587;54;20990;-66
2024/01/27 08:26:08;;;;;;;9.68;5.00;;;3.60;71.10;;;;;;2265377;55;21475;-66
2024/01/27 08:28:34;;;;;;;8.30;4.55;;;3.60;71.20;;;;;;2264547;55;20922;-66
2024/01/27 08:31:01;;;;;;;8.30;4.45;;;3.60;71.20;;;;;;2264688;55;21355;-66
2024/01/27 08:33:28;;;;;;;8.45;4.65;;;3.60;71.40;;;;;;2494377;54;20987;-66
2024/01/27 08:35:54;;;;;;;6.80;4.10;;;3.60;71.40;;;;;;2259928;55;20944;-66
2024/01/27 08:38:23;;;;;;;7.03;4.30;;;3.60;71.50;;;;;;2262729;55;21223;-66
2024/01/27 08:40:49;;;;;;;7.95;4.22;;;3.70;71.70;;;;;;2263978;55;21543;-67
2024/01/27 08:43:16;;;;;;;8.52;4.87;;;3.70;71.80;;;;;;2265081;55;20954;-66
2024/01/27 08:45:42;;;;;;;10.23;4.95;;;3.70;71.90;;;;;;2493766;54;20954;-67
2024/01/27 08:48:12;;;;;;;9.40;4.78;;;3.70;71.90;;;;;;2265095;55;20959;-67
2024/01/27 08:50:39;;;;;;;8.65;4.37;;;3.80;72.10;;;;;;2263537;55;20936;-67
2024/01/27 08:53:09;;;;;;;7.20;4.30;;;3.80;72.20;;;;;;2262277;56;21529;-67
2024/01/27 08:55:35;;;;;;;7.53;4.60;;;3.80;72.20;;;;;;2484256;54;21010;-67
2024/01/27 08:58:04;;;;;;;9.00;3.08;;;3.90;72.40;;;;;;2265412;55;21054;-67
2024/01/27 09:00:31;;;;;;;6.62;2.97;;;3.90;72.50;;;;;;2266655;55;20969;-67
2024/01/27 09:02:57;;;;;;;6.45;3.42;;;3.90;72.60;;;;;;2255422;55;20978;-66
2024/01/27 09:05:24;;;;;;;7.30;3.72;;;4.00;72.80;;;;;;2494403;54;20935;-67
2024/01/27 09:07:50;;;;;;;7.72;4.30;;;4.00;72.80;;;;;;2264829;55;20979;-66
2024/01/27 09:10:17;;;;;;;6.87;3.60;;;4.10;73.00;;;;;;2494670;54;21633;-65
2024/01/27 09:12:44;;;;;;;6.82;3.83;;;4.10;73.10;;;;;;2490143;54;21007;-67
2024/01/27 09:15:10;;;;;;;6.82;4.18;;;4.10;73.10;;;;;;2256931;55;21016;-65
2024/01/27 09:17:37;;;;;;;7.70;3.83;;;4.20;73.20;;;;;;2494972;54;21011;-66
2024/01/27 09:20:07;;;;;;;6.40;4.05;;;4.30;73.30;;;;;;2494383;54;21919;-67
2024/01/27 09:22:33;;;;;;;6.45;3.67;;;4.30;73.40;;;;;;2494561;54;21010;-67
2024/01/27 09:24:59;;;;;;;12.13;3.97;;;4.40;73.50;;;;;;2263930;55;20986;-67
2024/01/27 09:27:26;;;;;;;7.43;3.35;;;4.50;73.60;;;;;;2264872;55;21069;-67
2024/01/27 09:29:52;;;;;;;6.28;3.05;;;4.50;73.60;;;;;;2481424;54;21068;-66
2024/01/27 09:32:19;;;;;;;6.70;3.22;;;4.50;73.70;;;;;;2265965;55;20931;-67
2024/01/27 09:34:47;;;;;;;5.28;2.83;;;4.60;73.80;;;;;;2493451;54;21486;-67
2024/01/27 09:37:13;;;;;;;9.23;3.08;;;4.60;73.90;;;;;;2493182;54;20951;-67
2024/01/27 09:39:43;;;;;;;6.20;2.58;;;4.70;74.10;;;;;;2494263;54;21065;-66
2024/01/27 09:42:11;;;;;;;6.10;2.78;;;4.70;74.10;;;;;;2235216;57;21014;-67
2024/01/27 09:44:39;;;;;;;6.07;2.90;;;4.80;74.30;;;;;;2265620;55;20951;-67
2024/01/27 09:47:05;;;;;;;6.50;2.78;;;4.80;74.30;;;;;;2264953;55;20942;-66
2024/01/27 09:49:32;;;;;;;5.93;3.28;;;4.90;74.50;;;;;;2495019;54;20963;-66
2024/01/27 09:51:59;;;;;;;6.55;3.58;;;5.00;74.70;;;;;;2494442;54;20975;-67
2024/01/27 09:54:26;;;;;;;7.00;3.40;;;5.10;75.70;;;;;;2495309;54;21018;-67
2024/01/27 09:56:54;;;;;;;8.15;3.40;;;5.20;75.20;;;;;;2494645;54;20974;-66
2024/01/27 09:59:21;;;;;;;7.37;3.22;;;5.20;75.30;;;;;;2495327;54;21506;-67
2024/01/27 10:01:48;;;;;;;6.60;2.78;;;5.30;75.50;;;;;;2493889;54;21114;-67
2024/01/27 10:04:15;;;;;;;6.18;2.67;;;5.40;75.60;;;;;;2254654;56;20961;-66
2024/01/27 10:06:43;;;;;;;5.35;2.80;;;5.50;75.80;;;;;;2265855;55;20927;-67
2024/01/27 10:09:09;;;;;;;6.60;3.30;;;5.60;75.90;;;;;;2265536;55;20961;-67
2024/01/27 10:11:36;;;;;;;5.93;3.75;;;5.70;76.00;;;;;;2260092;55;21459;-66
2024/01/27 10:14:03;;;;;;;5.80;3.55;;;5.80;76.10;;;;;;2260971;55;20990;-67
2024/01/27 10:16:42;;;;;;;5.68;3.03;;;5.90;76.30;;;;;;2494743;54;21274;-67
2024/01/27 10:19:20;;;;;;;5.72;2.60;;;6.00;76.30;;;;;;2265616;55;20971;-68
2024/01/27 10:22:02;;;;;;;8.77;3.25;;;6.10;76.40;;;;;;2265284;55;20979;-67
2024/01/27 10:24:33;;;;;;;6.90;3.00;;;6.20;76.50;;;;;;2266002;55;20954;-67
2024/01/27 10:27:03;;;;;;;6.82;3.28;;;6.30;76.70;;;;;;2265099;55;21293;-67
2024/01/27 10:29:30;;;;;;;5.90;2.97;;;6.40;76.80;;;;;;2494964;54;20938;-67
2024/01/27 10:32:07;;;;;;;6.15;3.55;;;6.50;77.00;;;;;;2260596;56;21032;-66
2024/01/27 10:34:34;;;;;;;6.80;4.22;;;6.70;77.20;;;;;;2250787;56;21000;-69
2024/01/27 10:37:00;;;;;;;5.57;3.15;;;6.70;77.30;;;;;;2492896;54;21002;-68
2024/01/27 10:39:28;;;;;;;7.18;3.95;;;6.80;77.40;;;;;;2493506;54;20966;-68
2024/01/27 10:41:57;;;;;;;5.78;3.15;;;6.90;77.50;;;;;;2486675;54;20980;-66
2024/01/27 10:44:25;;;;;;;5.93;3.42;;;7.00;77.60;;;;;;2260608;55;20941;-66
2024/01/27 10:46:54;;;;;;;6.55;3.83;;;7.10;78.00;;;;;;2493211;54;20970;-69
2024/01/27 10:49:21;;;;;;;6.28;3.92;;;7.30;78.40;;;;;;2266028;55;20950;-67
2024/01/27 10:51:58;;;;;;;8.32;4.43;;;7.40;78.60;;;;;;2257128;55;21138;-67
2024/01/27 10:54:27;;;;;;;7.15;4.45;;;7.60;79.40;;;;;;2264470;55;21319;-69
2024/01/27 10:56:59;;;;;;;7.28;3.60;;;7.70;78.70;;;;;;2493373;54;20998;-68
2024/01/27 10:59:28;;;;;;;8.02;4.18;;;7.80;79.20;;;;;;2264420;55;20958;-69
2024/01/27 11:01:55;;;;;;;7.12;4.18;;;8.00;79.60;;;;;;2263923;55;20998;-68
2024/01/27 11:04:22;;;;;;;7.12;3.85;;;8.10;79.80;;;;;;2265091;55;20971;-67
2024/01/27 11:06:49;;;;;;;7.12;4.15;;;8.20;79.90;;;;;;2492259;54;21338;-69
2024/01/27 11:09:17;;;;;;;8.30;4.15;;;8.40;80.00;;;;;;2494698;54;20990;-67
2024/01/27 11:11:45;;;;;;;6.50;3.40;;;8.50;79.70;;;;;;2265264;55;21058;-68
2024/01/27 11:14:15;;;;;;;8.53;4.03;;;8.60;79.40;;;;;;2495088;54;20984;-67
2024/01/27 11:16:47;;;;;;;7.28;3.85;;;8.80;79.60;;;;;;2265353;55;20958;-68
2024/01/27 11:19:13;;;;;;;5.90;3.45;;;8.80;78.60;;;;;;2495024;54;21014;-69
2024/01/27 11:21:40;;;;;;;6.28;3.67;;;8.90;78.10;;;;;;2266023;55;21027;-68
2024/01/27 11:24:16;;;;;;;6.95;3.55;;;9.00;77.80;;;;;;2494046;54;20986;-67
2024/01/27 11:26:44;;;;;;;7.00;3.60;;;9.10;77.50;;;;;;2494244;54;20958;-69
2024/01/27 11:29:19;;;;;;;7.32;3.58;;;9.10;77.50;;;;;;2235952;57;21417;-70
2024/01/27 11:31:46;;;;;;;5.57;3.30;;;9.20;77.50;;;;;;2265846;55;20954;-67
2024/01/27 11:34:12;;;;;;;6.05;2.87;;;9.30;77.40;;;;;;2264522;55;21412;-68
2024/01/27 11:36:39;;;;;;;5.72;2.92;;;9.30;77.20;;;;;;2494806;54;21365;-70
2024/01/27 11:39:21;;;;;;;6.15;3.35;;;9.30;77.00;;;;;;2264508;55;21026;-67
2024/01/27 11:41:48;;;;;;;7.75;3.22;;;9.40;77.10;;;;;;2265285;55;21014;-67
2024/01/27 11:44:15;;;;;;;6.70;2.90;;;9.50;77.10;;;;;;2265417;55;21027;-68
2024/01/27 11:46:43;;;;;;;5.53;2.53;;;9.50;77.00;;;;;;2493531;54;20991;-69
2024/01/27 11:49:14;;;;;;;5.37;3.12;;;9.50;76.80;;;;;;2494021;54;21141;-69
2024/01/27 11:51:43;;;;;;;9.70;3.70;;;9.60;76.80;;;;;;2494966;54;20963;-67
2024/01/27 11:54:09;;;;;;;5.15;2.47;;;9.60;76.70;;;;;;2494099;54;21025;-70
2024/01/27 11:56:35;;;;;;;4.70;2.45;;;9.70;76.60;;;;;;2495207;54;20943;-66
2024/01/27 11:59:03;;;;;;;3.97;1.92;;;9.70;76.50;;;;;;2264771;55;20974;-69
2024/01/27 12:01:29;;;;;;;5.35;2.35;;;9.70;76.50;;;;;;2265149;55;21026;-69
2024/01/27 12:04:03;;;;;;;4.68;2.55;;;9.80;76.50;;;;;;2494261;54;20991;-68
2024/01/27 12:06:30;;;;;;;5.82;2.72;;;9.80;76.90;;;;;;2266011;55;21289;-68
2024/01/27 12:08:57;;;;;;;5.43;2.47;;;9.90;76.10;;;;;;2493492;54;21042;-67
2024/01/27 12:11:34;;;;;;;6.15;2.50;;;9.90;76.70;;;;;;2494482;54;21749;-67
2024/01/27 12:14:00;;;;;;;5.45;2.30;;;9.90;75.70;;;;;;2262679;55;21455;-69
2024/01/27 12:16:28;;;;;;;7.47;2.53;;;9.90;76.00;;;;;;2264601;55;21443;-68
2024/01/27 12:18:55;;;;;;;6.37;2.55;;;10.00;74.80;;;;;;2264315;55;20975;-67
2024/01/27 12:21:24;;;;;;;6.65;3.00;;;10.00;74.50;;;;;;2494341;54;20927;-68
2024/01/27 12:23:53;;;;;;;6.97;2.60;;;10.10;74.40;;;;;;2493825;54;21440;-70
2024/01/27 12:26:28;;;;;;;7.12;2.97;;;10.00;74.30;;;;;;2494363;54;21002;-68
2024/01/27 12:28:55;;;;;;;9.73;2.62;;;10.10;74.30;;;;;;2264271;55;21078;-69
2024/01/27 12:31:24;;;;;;;7.20;2.50;;;10.10;74.30;;;;;;2260810;55;21996;-71
2024/01/27 12:33:55;;;;;;;7.62;2.58;;;10.10;74.10;;;;;;2262071;55;21059;-67
2024/01/27 12:36:21;;;;;;;6.78;2.50;;;10.10;74.00;;;;;;2264403;55;21037;-67
2024/01/27 12:38:57;;;;;;;7.05;2.72;;;10.10;74.00;;;;;;2493778;54;21000;-68
2024/01/27 12:41:27;;;;;;;6.22;2.45;;;10.20;73.60;;;;;;2494682;54;21640;-67
2024/01/27 12:43:54;;;;;;;5.47;2.50;;;10.20;73.80;;;;;;2264498;55;21789;-69
2024/01/27 12:46:21;;;;;;;8.13;2.70;;;10.20;73.80;;;;;;2494497;54;20983;-68
2024/01/27 12:48:48;;;;;;;4.62;2.33;;;10.20;73.90;;;;;;2494845;54;21443;-69
2024/01/27 12:51:14;;;;;;;7.80;3.20;;;10.20;73.90;;;;;;2263972;55;21538;-67
2024/01/27 12:53:46;;;;;;;6.28;2.72;;;10.20;73.80;;;;;;2494552;54;20998;-69
2024/01/27 12:56:14;;;;;;;6.72;3.08;;;10.20;73.80;;;;;;2493741;54;21006;-67